St George Airport
PAPB : rendu visible

Aérodrome :











RETROUVEZ-NOUS SUR...

 
LOGIN :

S'inscrire | Disclaimer

   EN    FR    IT 

 









Légende :    VFR   VFR Marginal   IFR   IFR Intensif   IFR Très Intensif
Visi : 
Plafond : 
>= 8 km
>= 3000ft
5 à 8 km
1000 à 3000 ft
1500m à 5 km
500 à 1000 ft
800 à 1500m
200 à 500 ft
< 800m
< 200 ft
Symboles :   Orages  Brouillard  Fortes neiges  Fortes précipitations  Vent > 20 kt






- Altitude de l'aérodrome : 125 ft
- Code IATA : PBV


PAPB - St George

DERNIER METAR :
  • 061053Z AUTO 00000KT 1 1/4SM BR FEW004 BKN020 OVC026 06/05 A3011 RMK AO2 RAB19E38 SLP184 P0001 T00610050 TSNO $

METARs EXPIRÉS :
  • 061046Z AUTO 00000KT 2 1/2SM BR FEW002 BKN014 OVC026 06/05 A3011 RMK AO2 RAB19E38 P0001 T00610050 TSNO $
  • 061040Z AUTO 00000KT 4SM BR FEW002 BKN007 OVC020 06/05 A3011 RMK AO2 RAB19E38 P0001 T00610050 TSNO $
  • 061026Z AUTO 00000KT 2SM -RA BR FEW002 BKN008 OVC026 06/05 A3011 RMK AO2 RAB19 P0001 T00610050 TSNO $
  • 061005Z AUTO 26003KT 8SM FEW002 OVC024 06/05 A3011 RMK AO2 T00610050 TSNO $
  • 060953Z AUTO 27003KT 8SM OVC024 06/05 A3011 RMK AO2 SLP184 T00610050 TSNO $
  • 060853Z AUTO 28004KT 10SM SCT011 OVC025 07/04 A3011 RMK AO2 SLP185 T00670044 400830056 53005 TSNO $

TAF N/A
FIR PAZA / Amérique du Nord



MET'MAP, la Météo Aéronautique d'un coup d'oeil ! - Copyright ORBIFLY Décembre 2007 - Disclaimer

ORBIFLY MET'MAP TEAM :

Programmation & Développement : Alexandra Zaïnal
Sur une idée originale de : Baudouin d'Aumeries
Assistance à la programmation : Marc-Olivier Méhu
Soutien technique & logistique : Manuel Goepfert

Contact : metmap@orbifly.com




SOURCES & CREDITS :

   NOAA       Earth
Advisory